createdAt,value
2022-08-05T00:02:07.705Z,54.30
2022-08-05T00:04:46.351Z,54.40
2022-08-05T00:08:01.066Z,55.11
2022-08-05T00:10:27.147Z,54.84
2022-08-05T00:13:01.011Z,55.17
2022-08-05T00:15:55.016Z,55.74
2022-08-05T00:18:30.789Z,55.25
2022-08-05T00:21:06.462Z,55.50
2022-08-05T00:23:46.345Z,54.99
2022-08-05T00:26:21.999Z,55.07
2022-08-05T00:28:56.018Z,55.19
2022-08-05T00:31:53.554Z,55.51
2022-08-05T00:34:56.058Z,55.68
2022-08-05T00:37:18.834Z,55.62
2022-08-05T00:39:58.574Z,55.88
2022-08-05T00:42:35.487Z,56.11
2022-08-05T00:45:13.466Z,56.06
2022-08-05T00:47:57.043Z,55.84
2022-08-05T00:50:31.740Z,56.31
2022-08-05T00:53:09.783Z,56.37
2022-08-05T00:56:00.480Z,56.18
2022-08-05T00:58:34.108Z,56.24
2022-08-05T01:01:09.016Z,56.56
2022-08-05T01:03:45.161Z,56.39
2022-08-05T01:06:32.398Z,56.59
2022-08-05T01:09:07.889Z,56.22
2022-08-05T01:11:42.899Z,56.74
2022-08-05T01:14:28.440Z,56.79
2022-08-05T01:17:07.391Z,57.09
2022-08-05T01:20:01.338Z,57.32
2022-08-05T01:22:54.131Z,57.24
2022-08-05T01:25:54.852Z,56.91
2022-08-05T01:28:37.111Z,56.98
2022-08-05T01:31:18.291Z,56.94
2022-08-05T01:33:58.427Z,57.42
2022-08-05T01:36:37.111Z,57.55
2022-08-05T01:39:36.069Z,57.62
2022-08-05T01:42:15.214Z,57.58
2022-08-05T01:44:54.339Z,57.94
2022-08-05T01:47:38.796Z,57.94
2022-08-05T01:50:19.245Z,58.07
2022-08-05T01:53:05.541Z,57.93
2022-08-05T01:55:44.863Z,58.38
2022-08-05T01:58:41.025Z,58.37
2022-08-05T02:01:16.042Z,58.73
2022-08-05T02:03:59.159Z,58.78
2022-08-05T02:06:38.241Z,58.53
2022-08-05T02:09:14.565Z,58.87
2022-08-05T02:11:52.855Z,58.52
2022-08-05T02:14:32.255Z,58.76
2022-08-05T02:18:28.745Z,59.02
2022-08-05T02:20:20.709Z,59.04
2022-08-05T02:22:59.858Z,59.38
2022-08-05T02:25:49.396Z,59.49
2022-08-05T02:28:29.003Z,59.58
2022-08-05T02:31:14.447Z,59.90
2022-08-05T02:33:57.416Z,59.63
2022-08-05T02:36:33.360Z,59.55
2022-08-05T02:39:11.134Z,59.71
2022-08-05T02:42:01.359Z,59.70
2022-08-05T02:44:37.562Z,59.79
2022-08-05T02:47:12.319Z,59.81
2022-08-05T02:49:48.366Z,60.14
2022-08-05T02:52:30.077Z,60.29
2022-08-05T02:55:10.885Z,60.02
2022-08-05T02:58:19.652Z,60.28
2022-08-05T03:00:40.660Z,60.18
2022-08-05T03:03:23.474Z,60.37
2022-08-05T03:06:53.819Z,60.25
2022-08-05T03:08:56.180Z,60.50
2022-08-05T03:11:54.823Z,60.62
2022-08-05T03:14:23.835Z,60.35
2022-08-05T03:16:57.552Z,60.70
2022-08-05T03:19:34.566Z,60.51
2022-08-05T03:22:16.047Z,60.98
2022-08-05T03:24:52.698Z,60.72
2022-08-05T03:27:29.731Z,60.73
2022-08-05T03:30:21.293Z,60.89
2022-08-05T03:33:08.100Z,61.15
2022-08-05T03:35:41.986Z,60.79
2022-08-05T03:38:23.818Z,61.32
2022-08-05T03:41:10.714Z,61.09
2022-08-05T03:44:08.075Z,61.16
2022-08-05T03:46:38.581Z,61.43
2022-08-05T03:49:12.166Z,61.09
2022-08-05T03:52:37.259Z,61.10
2022-08-05T03:55:52.639Z,61.11
2022-08-05T03:57:50.433Z,61.04
2022-08-05T04:00:29.587Z,61.13
2022-08-05T04:03:08.168Z,61.42
2022-08-05T04:05:49.227Z,61.23
2022-08-05T04:08:35.207Z,61.52
2022-08-05T04:11:12.654Z,61.14
2022-08-05T04:13:53.325Z,60.98
2022-08-05T04:16:32.351Z,61.09
2022-08-05T04:19:10.568Z,61.05
2022-08-05T04:22:08.278Z,60.67
2022-08-05T04:24:38.258Z,60.85
2022-08-05T04:27:19.332Z,60.60
2022-08-05T04:30:08.605Z,60.63
2022-08-05T04:32:42.669Z,60.44
2022-08-05T04:35:17.499Z,60.12
2022-08-05T04:38:01.488Z,59.96
2022-08-05T04:40:47.826Z,60.02
2022-08-05T04:43:26.093Z,60.06
2022-08-05T04:45:59.631Z,59.51
2022-08-05T04:48:33.397Z,59.47
2022-08-05T04:51:11.483Z,59.70
2022-08-05T04:53:45.388Z,58.92
2022-08-05T04:56:34.929Z,59.09
2022-08-05T04:59:21.619Z,58.82
2022-08-05T05:02:35.171Z,58.82
2022-08-05T05:04:52.483Z,58.89
2022-08-05T05:07:36.021Z,58.63
2022-08-05T05:10:10.425Z,57.90
2022-08-05T05:12:44.209Z,57.47
2022-08-05T05:15:54.271Z,57.62
2022-08-05T05:18:15.415Z,57.68
2022-08-05T05:21:03.905Z,58.16
2022-08-05T05:23:39.051Z,57.33
2022-08-05T05:26:32.768Z,57.67
2022-08-05T05:29:10.152Z,56.53
2022-08-05T05:31:49.999Z,56.34
2022-08-05T05:34:26.937Z,55.28
2022-08-05T05:37:00.827Z,55.96
2022-08-05T05:39:35.178Z,55.22
2022-08-05T05:42:10.011Z,55.56
2022-08-05T05:44:46.021Z,55.06
2022-08-05T05:47:21.489Z,54.36
2022-08-05T05:50:01.498Z,54.12
2022-08-05T05:52:38.115Z,53.92
2022-08-05T05:55:15.684Z,53.13
2022-08-05T05:57:52.870Z,52.56
2022-08-05T06:00:27.757Z,52.26
2022-08-05T06:03:40.854Z,51.84
2022-08-05T06:06:00.263Z,51.27
2022-08-05T06:08:34.959Z,51.70
2022-08-05T06:11:13.510Z,51.38
2022-08-05T06:13:53.798Z,51.38
2022-08-05T06:16:33.051Z,51.55
2022-08-05T06:19:12.712Z,51.00
2022-08-05T06:21:59.941Z,50.91
2022-08-05T06:24:34.764Z,49.72
2022-08-05T06:27:17.227Z,49.82
2022-08-05T06:30:04.632Z,49.73
2022-08-05T06:32:51.641Z,48.38
2022-08-05T06:36:07.517Z,47.58
2022-08-05T06:38:35.988Z,46.94
2022-08-05T06:41:16.852Z,46.85
2022-08-05T06:43:57.926Z,46.37
2022-08-05T06:46:33.536Z,46.03
2022-08-05T06:49:08.349Z,45.80
2022-08-05T06:51:43.530Z,46.72
2022-08-05T06:54:18.070Z,46.29
2022-08-05T06:56:54.880Z,45.91
2022-08-05T06:59:55.201Z,45.45
2022-08-05T07:02:32.496Z,45.82
2022-08-05T07:05:14.221Z,45.04
2022-08-05T07:07:53.473Z,44.98
2022-08-05T07:10:30.525Z,44.74
2022-08-05T07:13:39.467Z,45.18
2022-08-05T07:17:59.722Z,44.13
2022-08-05T07:20:16.686Z,43.58
2022-08-05T07:22:28.662Z,43.39
2022-08-05T07:25:22.833Z,42.95
2022-08-05T07:28:03.739Z,42.68
2022-08-05T07:30:41.390Z,42.26
2022-08-05T07:33:17.359Z,42.13
2022-08-05T07:36:02.194Z,41.63
2022-08-05T07:38:43.684Z,41.27
2022-08-05T07:42:14.610Z,40.90
2022-08-05T07:44:18.987Z,40.55
2022-08-05T07:46:53.079Z,39.78
2022-08-05T07:49:27.582Z,40.22
2022-08-05T07:52:01.753Z,41.18
2022-08-05T07:54:41.235Z,40.89
2022-08-05T07:57:51.291Z,39.78
2022-08-05T08:00:17.057Z,38.64
2022-08-05T08:03:15.186Z,38.57
2022-08-05T08:05:49.767Z,39.03
2022-08-05T08:08:23.618Z,37.28
2022-08-05T08:11:00.838Z,36.20
2022-08-05T08:13:49.331Z,36.48
2022-08-05T08:16:35.948Z,36.14
2022-08-05T08:20:10.418Z,36.10
2022-08-05T08:22:16.936Z,35.31
2022-08-05T08:24:51.460Z,35.49
2022-08-05T08:27:40.409Z,35.01
2022-08-05T08:30:33.935Z,33.98
2022-08-05T08:33:13.963Z,34.27
2022-08-05T08:35:53.860Z,32.48
2022-08-05T08:38:41.651Z,31.31
2022-08-05T08:41:17.333Z,30.61
2022-08-05T08:45:21.320Z,29.21
2022-08-05T08:46:50.292Z,28.54
2022-08-05T08:50:23.369Z,27.03
2022-08-05T08:52:25.358Z,25.13
2022-08-05T08:55:00.014Z,24.12
2022-08-05T08:57:48.300Z,22.62
2022-08-05T09:00:30.245Z,21.19
2022-08-05T09:03:07.901Z,20.42
2022-08-05T09:06:08.602Z,20.26
2022-08-05T09:08:35.474Z,19.76
2022-08-05T09:11:15.208Z,19.00
2022-08-05T09:14:10.113Z,18.74
2022-08-05T09:16:42.756Z,18.16
2022-08-05T09:19:24.709Z,17.11
2022-08-05T09:22:22.719Z,16.90
2022-08-05T09:24:59.723Z,16.44
2022-08-05T09:28:04.704Z,16.14
2022-08-05T09:30:29.186Z,15.34
2022-08-05T09:33:04.926Z,15.08
2022-08-05T09:35:54.051Z,15.17
2022-08-05T09:38:29.566Z,16.49
2022-08-05T09:41:08.732Z,17.24
2022-08-05T09:43:42.364Z,17.58
2022-08-05T09:46:28.401Z,18.11
2022-08-05T09:49:07.683Z,18.30
2022-08-05T09:51:53.578Z,19.51
2022-08-05T09:54:32.549Z,20.27
2022-08-05T09:57:06.223Z,20.04
2022-08-05T09:59:59.581Z,20.41
2022-08-05T10:02:35.476Z,20.20
2022-08-05T10:05:11.987Z,20.21
2022-08-05T10:08:36.481Z,19.36
2022-08-05T10:10:54.642Z,19.99
2022-08-05T10:13:43.824Z,19.45
2022-08-05T10:16:33.910Z,19.71
2022-08-05T10:19:09.428Z,19.69
2022-08-05T10:21:43.781Z,19.96
2022-08-05T10:24:19.952Z,19.65
2022-08-05T10:27:01.770Z,19.50
2022-08-05T10:30:06.804Z,20.01
2022-08-05T10:32:53.842Z,19.90
2022-08-05T10:35:33.803Z,19.94
2022-08-05T10:38:15.263Z,19.87
2022-08-05T10:41:00.718Z,20.10
2022-08-05T10:43:44.927Z,20.00
2022-08-05T10:46:23.788Z,21.00
2022-08-05T10:49:00.592Z,19.97
2022-08-05T10:51:48.622Z,20.47
2022-08-05T10:54:56.168Z,20.63
2022-08-05T10:57:34.235Z,21.13
2022-08-05T11:00:19.170Z,21.35
2022-08-05T11:03:23.004Z,22.63
2022-08-05T11:06:20.898Z,23.65
2022-08-05T11:09:16.980Z,24.72
2022-08-05T11:11:52.886Z,25.06
2022-08-05T11:17:59.813Z,26.94
2022-08-05T11:20:43.737Z,27.03
2022-08-05T11:23:33.224Z,27.66
2022-08-05T11:26:09.448Z,28.34
2022-08-05T11:28:47.088Z,29.00
2022-08-05T11:31:57.835Z,29.26
2022-08-05T11:34:38.843Z,28.94
2022-08-05T11:38:28.420Z,29.52
2022-08-05T11:40:06.595Z,29.77
2022-08-05T11:42:47.370Z,29.10
2022-08-05T11:46:14.745Z,29.42
2022-08-05T11:48:16.630Z,29.96
2022-08-05T11:50:52.910Z,29.15
2022-08-05T11:53:26.847Z,29.33
2022-08-05T11:56:07.536Z,29.44
2022-08-05T11:58:51.304Z,29.34
2022-08-05T12:01:26.940Z,29.77
2022-08-05T12:04:01.962Z,29.57
2022-08-05T12:06:37.427Z,29.01
2022-08-05T12:09:53.445Z,29.30
2022-08-05T12:12:24.038Z,29.08
2022-08-05T12:15:00.124Z,28.87
2022-08-05T12:18:02.720Z,28.40
2022-08-05T12:20:34.076Z,28.13
2022-08-05T12:23:13.584Z,28.60
2022-08-05T12:25:57.322Z,28.98
2022-08-05T12:28:39.015Z,28.89
2022-08-05T12:31:12.705Z,29.42
2022-08-05T12:33:57.538Z,28.32
2022-08-05T12:36:35.448Z,29.20
2022-08-05T12:39:09.448Z,29.51
2022-08-05T12:41:43.585Z,28.49
2022-08-05T12:44:32.676Z,29.42
2022-08-05T12:47:12.589Z,28.65
2022-08-05T12:50:04.561Z,27.65
2022-08-05T12:52:42.649Z,27.37
2022-08-05T12:55:22.139Z,28.55
2022-08-05T12:58:38.513Z,28.28
2022-08-05T13:02:03.287Z,27.96
2022-08-05T13:03:48.885Z,27.83
2022-08-05T13:06:29.410Z,28.42
2022-08-05T13:09:10.432Z,28.59
2022-08-05T13:12:02.061Z,27.73
2022-08-05T13:14:38.722Z,28.62
2022-08-05T13:17:31.540Z,28.73
2022-08-05T13:20:20.332Z,28.35
2022-08-05T13:22:57.539Z,28.06
2022-08-05T13:25:58.847Z,28.19
2022-08-05T13:28:26.878Z,28.06
2022-08-05T13:31:03.300Z,28.33
2022-08-05T13:34:23.461Z,28.34
2022-08-05T13:36:38.805Z,28.73
2022-08-05T13:40:14.313Z,29.37
2022-08-05T13:42:14.798Z,29.86
2022-08-05T13:44:49.114Z,29.86
2022-08-05T13:47:34.946Z,30.04
2022-08-05T13:50:14.792Z,30.17
2022-08-05T13:52:50.276Z,30.13
2022-08-05T13:55:41.041Z,29.92
2022-08-05T13:58:23.277Z,30.54
2022-08-05T14:01:05.417Z,30.62
2022-08-05T14:03:40.836Z,31.09
2022-08-05T14:06:26.757Z,30.69
2022-08-05T14:09:01.552Z,30.77
2022-08-05T14:12:00.462Z,30.47
2022-08-05T14:14:37.585Z,29.71
2022-08-05T14:17:16.889Z,29.65
2022-08-05T14:19:55.462Z,29.98
2022-08-05T14:22:34.526Z,29.88
2022-08-05T14:25:21.362Z,30.32
2022-08-05T14:27:55.944Z,29.87
2022-08-05T14:30:30.866Z,29.70
2022-08-05T14:33:05.263Z,30.19
2022-08-05T14:35:50.477Z,30.52
2022-08-05T14:38:32.911Z,30.24
2022-08-05T14:41:09.609Z,30.67
2022-08-05T14:44:02.461Z,30.24
2022-08-05T14:46:38.634Z,29.40
2022-08-05T14:49:12.285Z,28.68
2022-08-05T14:51:45.957Z,28.62
2022-08-05T14:54:27.575Z,29.12
2022-08-05T14:57:05.362Z,29.43
2022-08-05T14:59:43.421Z,29.56
2022-08-05T15:02:18.530Z,27.83
2022-08-05T15:04:54.142Z,27.63
2022-08-05T15:08:11.621Z,27.80
2022-08-05T15:10:28.868Z,28.08
2022-08-05T15:13:04.785Z,27.91
2022-08-05T15:15:55.881Z,27.67
2022-08-05T15:18:31.421Z,27.81
2022-08-05T15:21:07.464Z,27.91
2022-08-05T15:23:41.675Z,28.36
2022-08-05T15:26:15.660Z,28.67
2022-08-05T15:29:05.444Z,28.66
2022-08-05T15:31:39.770Z,28.68
2022-08-05T15:34:32.376Z,28.33
2022-08-05T15:38:09.325Z,28.74
2022-08-05T15:41:00.212Z,28.22
2022-08-05T15:43:00.462Z,27.42
2022-08-05T15:45:45.747Z,27.91
2022-08-05T15:48:21.199Z,28.23
2022-08-05T15:51:03.450Z,29.02
2022-08-05T15:53:51.356Z,29.48
2022-08-05T15:56:25.368Z,29.51
2022-08-05T15:59:04.252Z,29.64
2022-08-05T16:01:52.064Z,29.73
2022-08-05T16:04:27.030Z,29.43
2022-08-05T16:07:02.342Z,29.15
2022-08-05T16:09:35.921Z,29.11
2022-08-05T16:12:11.481Z,29.10
2022-08-05T16:14:45.936Z,29.37
2022-08-05T16:17:20.288Z,29.30
2022-08-05T16:20:05.379Z,29.32
2022-08-05T16:22:46.277Z,29.55
2022-08-05T16:25:20.555Z,29.78
2022-08-05T16:28:04.878Z,29.92
2022-08-05T16:30:39.694Z,29.42
2022-08-05T16:33:15.521Z,29.88
2022-08-05T16:35:53.060Z,30.00
2022-08-05T16:38:29.332Z,30.18
2022-08-05T16:42:12.684Z,28.52
2022-08-05T16:43:57.691Z,27.17
2022-08-05T16:46:31.593Z,26.97
2022-08-05T16:49:06.752Z,27.16
2022-08-05T16:51:42.568Z,27.18
2022-08-05T16:54:31.924Z,27.19
2022-08-05T16:57:14.957Z,27.25
2022-08-05T17:00:01.350Z,27.16
2022-08-05T17:02:38.106Z,27.48
2022-08-05T17:05:11.833Z,27.84
2022-08-05T17:07:53.136Z,28.46
2022-08-05T17:10:30.619Z,29.06
2022-08-05T17:13:04.495Z,29.62
2022-08-05T17:15:47.858Z,30.05
2022-08-05T17:18:22.243Z,30.76
2022-08-05T17:20:56.278Z,30.57
2022-08-05T17:24:05.479Z,31.72
2022-08-05T17:26:25.109Z,31.95
2022-08-05T17:28:59.375Z,32.25
2022-08-05T17:31:56.933Z,32.60
2022-08-05T17:34:32.622Z,32.98
2022-08-05T17:37:36.149Z,33.58
2022-08-05T17:40:03.368Z,34.12
2022-08-05T17:42:46.425Z,34.49
2022-08-05T17:45:29.733Z,34.90
2022-08-05T17:48:12.534Z,35.13
2022-08-05T17:50:46.243Z,35.20
2022-08-05T17:53:20.939Z,35.49
2022-08-05T17:55:54.695Z,35.77
2022-08-05T17:58:32.821Z,35.60
2022-08-05T18:01:08.187Z,36.07
2022-08-05T18:03:58.678Z,36.26
2022-08-05T18:06:40.326Z,36.53
2022-08-05T18:10:00.032Z,36.33
2022-08-05T18:12:35.810Z,36.45
2022-08-05T18:15:11.721Z,36.66
2022-08-05T18:17:59.229Z,37.01
2022-08-05T18:20:35.505Z,37.09
2022-08-05T18:23:12.244Z,37.44
2022-08-05T18:25:47.667Z,37.79
2022-08-05T18:28:31.632Z,37.92
2022-08-05T18:31:07.224Z,38.08
2022-08-05T18:33:47.170Z,38.34
2022-08-05T18:36:27.860Z,38.72
2022-08-05T18:39:01.988Z,39.17
2022-08-05T18:41:56.221Z,39.41
2022-08-05T18:44:34.970Z,39.77
2022-08-05T18:47:26.694Z,39.14
2022-08-05T18:50:17.956Z,40.06
2022-08-05T18:52:51.909Z,40.26
2022-08-05T18:55:25.628Z,40.92
2022-08-05T18:58:03.593Z,41.03
2022-08-05T19:00:37.569Z,41.23
2022-08-05T19:03:17.877Z,41.44
2022-08-05T19:06:20.140Z,41.37
2022-08-05T19:08:56.083Z,41.59
2022-08-05T19:11:59.412Z,41.28
2022-08-05T19:14:59.368Z,41.49
2022-08-05T19:17:17.702Z,41.87
2022-08-05T19:19:54.321Z,41.87
2022-08-05T19:22:28.088Z,42.10
2022-08-05T19:25:02.642Z,42.01
2022-08-05T19:27:36.481Z,42.54
2022-08-05T19:30:11.162Z,42.78
2022-08-05T19:32:45.842Z,42.82
2022-08-05T19:35:21.798Z,42.90
2022-08-05T19:38:06.247Z,42.83
2022-08-05T19:40:43.961Z,43.10
2022-08-05T19:44:04.572Z,43.32
2022-08-05T19:46:16.829Z,43.16
2022-08-05T19:49:04.383Z,43.46
2022-08-05T19:52:08.350Z,43.64
2022-08-05T19:54:34.337Z,43.82
2022-08-05T19:57:09.922Z,43.67
2022-08-05T19:59:56.536Z,43.75
2022-08-05T20:02:45.174Z,44.32
2022-08-05T20:05:24.167Z,44.68
2022-08-05T20:07:59.785Z,44.61
2022-08-05T20:10:33.434Z,44.41
2022-08-05T20:13:07.084Z,44.88
2022-08-05T20:15:50.783Z,45.29
2022-08-05T20:18:32.812Z,44.86
2022-08-05T20:21:09.267Z,45.22
2022-08-05T20:23:50.911Z,45.31
2022-08-05T20:26:27.182Z,45.63
2022-08-05T20:29:01.085Z,45.76
2022-08-05T20:31:43.048Z,46.08
2022-08-05T20:34:26.193Z,46.35
2022-08-05T20:36:59.920Z,46.31
2022-08-05T20:39:36.697Z,47.00
2022-08-05T20:42:11.617Z,47.43
2022-08-05T20:44:45.389Z,47.42
2022-08-05T20:47:19.669Z,47.88
2022-08-05T20:50:07.469Z,48.46
2022-08-05T20:52:42.429Z,48.15
2022-08-05T20:55:54.638Z,48.35
2022-08-05T20:58:11.276Z,48.55
2022-08-05T21:00:54.390Z,48.46
2022-08-05T21:03:28.500Z,48.68
2022-08-05T21:06:28.121Z,49.33
2022-08-05T21:09:02.402Z,49.07
2022-08-05T21:12:07.533Z,49.24
2022-08-05T21:14:34.661Z,48.95
2022-08-05T21:17:09.037Z,49.16
2022-08-05T21:19:47.582Z,48.88
2022-08-05T21:22:24.155Z,48.90
2022-08-05T21:24:57.834Z,49.27
2022-08-05T21:27:38.976Z,49.42
2022-08-05T21:30:17.609Z,49.23
2022-08-05T21:32:51.593Z,49.73
2022-08-05T21:35:30.174Z,49.68
2022-08-05T21:38:17.478Z,49.61
2022-08-05T21:40:51.174Z,49.10
2022-08-05T21:43:26.334Z,48.60
2022-08-05T21:46:07.560Z,48.70
2022-08-05T21:48:41.290Z,48.48
2022-08-05T21:51:25.225Z,48.23
2022-08-05T21:54:08.137Z,47.63
2022-08-05T21:56:44.256Z,48.11
2022-08-05T21:59:24.299Z,47.86
2022-08-05T22:02:00.063Z,48.05
2022-08-05T22:04:33.752Z,48.22
2022-08-05T22:07:08.693Z,48.00
2022-08-05T22:09:47.343Z,48.19
2022-08-05T22:12:21.268Z,48.36
2022-08-05T22:15:01.743Z,48.11
2022-08-05T22:17:48.527Z,48.29
2022-08-05T22:20:29.823Z,47.58
2022-08-05T22:23:22.361Z,47.98
2022-08-05T22:26:15.064Z,48.19
2022-08-05T22:28:48.822Z,48.40
2022-08-05T22:31:24.687Z,48.24
2022-08-05T22:34:03.697Z,48.20
2022-08-05T22:36:38.323Z,48.35
2022-08-05T22:39:16.251Z,48.30
2022-08-05T22:44:36.634Z,48.22
2022-08-05T22:47:11.083Z,48.27
2022-08-05T22:50:20.259Z,48.33
2022-08-05T22:52:40.722Z,48.61
2022-08-05T22:55:19.081Z,48.75
2022-08-05T22:57:55.180Z,49.18
2022-08-05T23:00:30.315Z,49.62
2022-08-05T23:03:05.199Z,49.75
2022-08-05T23:05:38.815Z,49.77
2022-08-05T23:08:14.270Z,50.17
2022-08-05T23:10:50.873Z,50.10
2022-08-05T23:13:26.932Z,50.12
2022-08-05T23:16:02.073Z,50.16
2022-08-05T23:18:35.807Z,50.20
2022-08-05T23:21:12.163Z,50.16
2022-08-05T23:23:50.151Z,49.78
2022-08-05T23:26:25.916Z,49.37
2022-08-05T23:29:01.218Z,49.44
2022-08-05T23:31:36.282Z,49.95
2022-08-05T23:34:09.897Z,50.31
2022-08-05T23:36:44.607Z,50.12
2022-08-05T23:39:31.759Z,49.86
2022-08-05T23:42:08.683Z,50.36
2022-08-05T23:44:54.234Z,50.54
2022-08-05T23:47:33.583Z,50.44
2022-08-05T23:50:09.337Z,50.60
2022-08-05T23:52:50.438Z,50.61
2022-08-05T23:55:31.104Z,51.30
2022-08-05T23:58:05.021Z,51.09
